createdAt,value
2017-04-12T00:00:07.622Z,1014.68
2017-04-12T00:00:17.956Z,1014.62
2017-04-12T00:00:27.946Z,1014.62
2017-04-12T00:00:37.939Z,1014.65
2017-04-12T00:00:47.938Z,1014.59
2017-04-12T00:00:58.283Z,1014.6
2017-04-12T00:01:07.926Z,1014.6
2017-04-12T00:01:17.584Z,1014.61
2017-04-12T00:01:28.326Z,1014.57
2017-04-12T00:01:37.906Z,1014.57
2017-04-12T00:01:47.902Z,1014.57
2017-04-12T00:01:57.897Z,1014.54
2017-04-12T00:02:07.895Z,1014.56
2017-04-12T00:02:17.884Z,1014.55
2017-04-12T00:02:27.877Z,1014.53
2017-04-12T00:02:37.874Z,1014.57
2017-04-12T00:02:47.872Z,1014.49
2017-04-12T00:02:57.529Z,1014.48
2017-04-12T00:03:07.858Z,1014.46
2017-04-12T00:03:17.847Z,1014.53
2017-04-12T00:03:27.842Z,1014.44
2017-04-12T00:03:37.841Z,1014.47
2017-04-12T00:03:47.836Z,1014.48
2017-04-12T00:03:57.830Z,1014.52
2017-04-12T00:04:07.823Z,1014.54
2017-04-12T00:04:17.823Z,1014.5
2017-04-12T00:04:27.809Z,1014.52
2017-04-12T00:04:37.806Z,1014.5
2017-04-12T00:04:47.799Z,1014.53
2017-04-12T00:04:57.793Z,1014.53
2017-04-12T00:05:07.787Z,1014.58
2017-04-12T00:05:17.782Z,1014.53
2017-04-12T00:05:27.780Z,1014.59
2017-04-12T00:05:37.774Z,1014.56
2017-04-12T00:05:47.764Z,1014.54
2017-04-12T00:05:57.423Z,1014.53
2017-04-12T00:06:07.420Z,1014.46
2017-04-12T00:06:17.080Z,1014.5
2017-04-12T00:06:27.746Z,1014.49
2017-04-12T00:06:37.404Z,1014.54
2017-04-12T00:06:47.734Z,1014.52
2017-04-12T00:06:57.724Z,1014.51
2017-04-12T00:07:07.726Z,1014.52
2017-04-12T00:07:17.713Z,1014.53
2017-04-12T00:07:27.708Z,1014.5
2017-04-12T00:07:37.365Z,1014.47
2017-04-12T00:07:47.699Z,1014.47
2017-04-12T00:07:57.690Z,1014.54
2017-04-12T00:08:07.688Z,1014.55
2017-04-12T00:08:17.681Z,1014.55
2017-04-12T00:08:27.692Z,1014.49
2017-04-12T00:08:37.668Z,1014.54
2017-04-12T00:08:47.664Z,1014.46
2017-04-12T00:08:57.322Z,1014.46
2017-04-12T00:09:07.318Z,1014.47
2017-04-12T00:09:17.898Z,1014.53
2017-04-12T00:09:27.642Z,1014.45
2017-04-12T00:09:37.636Z,1014.45
2017-04-12T00:09:47.631Z,1014.48
2017-04-12T00:09:57.292Z,1014.47
2017-04-12T00:10:07.976Z,1014.47
2017-04-12T00:10:17.612Z,1014.45
2017-04-12T00:10:27.604Z,1014.47
2017-04-12T00:10:37.600Z,1014.46
2017-04-12T00:10:47.591Z,1014.41
2017-04-12T00:10:57.586Z,1014.43
2017-04-12T00:11:07.584Z,1014.47
2017-04-12T00:11:17.579Z,1014.43
2017-04-12T00:11:27.949Z,1014.45
2017-04-12T00:11:37.565Z,1014.46
2017-04-12T00:11:47.560Z,1014.42
2017-04-12T00:11:57.551Z,1014.42
2017-04-12T00:12:07.214Z,1014.4
2017-04-12T00:12:17.543Z,1014.42
2017-04-12T00:12:27.535Z,1014.43
2017-04-12T00:12:37.532Z,1014.39
2017-04-12T00:12:47.527Z,1014.42
2017-04-12T00:12:57.520Z,1014.39
2017-04-12T00:13:07.514Z,1014.4
2017-04-12T00:13:17.510Z,1014.39
2017-04-12T00:13:27.503Z,1014.42
2017-04-12T00:13:37.496Z,1014.37
2017-04-12T00:13:47.892Z,1014.31
2017-04-12T00:13:57.486Z,1014.37
2017-04-12T00:14:07.480Z,1014.37
2017-04-12T00:14:17.728Z,1014.34
2017-04-12T00:14:27.467Z,1014.3
2017-04-12T00:14:37.820Z,1014.28
2017-04-12T00:14:47.459Z,1014.27
2017-04-12T00:14:57.114Z,1014.3
2017-04-12T00:15:07.445Z,1014.31
2017-04-12T00:15:17.438Z,1014.29
2017-04-12T00:15:27.435Z,1014.28
2017-04-12T00:15:37.429Z,1014.33
2017-04-12T00:15:47.420Z,1014.32
2017-04-12T00:15:57.080Z,1014.28
2017-04-12T00:16:07.080Z,1014.33
2017-04-12T00:16:17.404Z,1014.3
2017-04-12T00:16:27.063Z,1014.27
2017-04-12T00:16:37.393Z,1014.35
2017-04-12T00:16:47.387Z,1014.27
2017-04-12T00:16:57.385Z,1014.27
2017-04-12T00:17:07.377Z,1014.26
2017-04-12T00:17:17.373Z,1014.25
2017-04-12T00:17:27.366Z,1014.19
2017-04-12T00:17:37.365Z,1014.21
2017-04-12T00:17:47.018Z,1014.24
2017-04-12T00:17:57.348Z,1014.21
2017-04-12T00:18:07.345Z,1014.27
2017-04-12T00:18:17.337Z,1014.24
2017-04-12T00:18:27.334Z,1014.25
2017-04-12T00:18:37.327Z,1014.24
2017-04-12T00:18:46.986Z,1014.26
2017-04-12T00:18:57.317Z,1014.22
2017-04-12T00:19:07.308Z,1014.18
2017-04-12T00:19:17.217Z,1014.21
2017-04-12T00:19:27.294Z,1014.21
2017-04-12T00:19:37.291Z,1014.22
2017-04-12T00:19:47.286Z,1014.23
2017-04-12T00:19:57.280Z,1014.18
2017-04-12T00:20:06.941Z,1014.18
2017-04-12T00:20:17.267Z,1014.15
2017-04-12T00:20:27.266Z,1014.15
2017-04-12T00:20:36.588Z,1014.18
2017-04-12T00:20:47.258Z,1014.1
2017-04-12T00:20:56.912Z,1014.16
2017-04-12T00:21:07.247Z,1014.15
2017-04-12T00:21:17.233Z,1014.18
2017-04-12T00:21:26.893Z,1014.15
2017-04-12T00:21:36.891Z,1014.11
2017-04-12T00:21:47.252Z,1014.13
2017-04-12T00:21:56.544Z,1014.15
2017-04-12T00:22:06.869Z,1014.13
2017-04-12T00:22:17.203Z,1014.11
2017-04-12T00:22:27.195Z,1014.15
2017-04-12T00:22:37.191Z,1014.12
2017-04-12T00:22:46.847Z,1014.11
2017-04-12T00:22:57.178Z,1014.08
2017-04-12T00:23:07.181Z,1014.05
2017-04-12T00:23:17.167Z,1014.1
2017-04-12T00:23:27.161Z,1014.13
2017-04-12T00:23:37.152Z,1014.15
2017-04-12T00:23:47.149Z,1014.11
2017-04-12T00:23:56.806Z,1014.11
2017-04-12T00:24:07.144Z,1014.16
2017-04-12T00:24:17.130Z,1014.17
2017-04-12T00:24:27.129Z,1014.12
2017-04-12T00:24:37.122Z,1014.19
2017-04-12T00:24:47.117Z,1014.1
2017-04-12T00:24:57.107Z,1014.1
2017-04-12T00:25:07.109Z,1014.14
2017-04-12T00:25:16.765Z,1014.12
2017-04-12T00:25:27.093Z,1014.14
2017-04-12T00:25:37.088Z,1014.1
2017-04-12T00:25:47.077Z,1014.14
2017-04-12T00:25:57.071Z,1014.14
2017-04-12T00:26:07.068Z,1014.15
2017-04-12T00:26:17.098Z,1014.13
2017-04-12T00:26:27.056Z,1014.09
2017-04-12T00:26:37.053Z,1014.13
2017-04-12T00:26:47.047Z,1014.08
2017-04-12T00:26:56.705Z,1014.1
2017-04-12T00:27:07.036Z,1014.1
2017-04-12T00:27:16.694Z,1014.05
2017-04-12T00:27:27.023Z,1014.08
2017-04-12T00:27:37.016Z,1014.11
2017-04-12T00:27:47.009Z,1014.09
2017-04-12T00:27:56.670Z,1014.08
2017-04-12T00:28:06.997Z,1014.08
2017-04-12T00:28:17.215Z,1014.06
2017-04-12T00:28:27.015Z,1014.11
2017-04-12T00:28:36.981Z,1014.08
2017-04-12T00:28:46.977Z,1014.11
2017-04-12T00:28:57.030Z,1014.1
2017-04-12T00:29:06.966Z,1014.13
2017-04-12T00:29:16.963Z,1014.08
2017-04-12T00:29:26.956Z,1014.06
2017-04-12T00:29:36.949Z,1014.13
2017-04-12T00:29:46.949Z,1014.1
2017-04-12T00:29:57.516Z,1014.08
2017-04-12T00:30:06.931Z,1014.07
2017-04-12T00:30:16.597Z,1014.06
2017-04-12T00:30:26.920Z,1014.05
2017-04-12T00:30:36.915Z,1014.06
2017-04-12T00:30:46.573Z,1014.07
2017-04-12T00:30:56.901Z,1014.04
2017-04-12T00:31:06.896Z,1014.08
2017-04-12T00:31:17.247Z,1014.04
2017-04-12T00:31:26.889Z,1014.02
2017-04-12T00:31:36.877Z,1014.05
2017-04-12T00:31:46.876Z,1014.02
2017-04-12T00:31:56.534Z,1013.99
2017-04-12T00:32:06.668Z,1014.03
2017-04-12T00:32:16.855Z,1014.04
2017-04-12T00:32:27.208Z,1014.04
2017-04-12T00:32:36.846Z,1014.02
2017-04-12T00:32:46.846Z,1014.01
2017-04-12T00:32:56.838Z,1014.04
2017-04-12T00:33:06.838Z,1014.01
2017-04-12T00:33:16.827Z,1014.07
2017-04-12T00:33:26.820Z,1014.01
2017-04-12T00:33:36.823Z,1013.99
2017-04-12T00:33:46.843Z,1014.01
2017-04-12T00:33:56.468Z,1013.97
2017-04-12T00:34:06.799Z,1013.98
2017-04-12T00:34:16.792Z,1014.01
2017-04-12T00:34:26.781Z,1013.99
2017-04-12T00:34:36.782Z,1014.02
2017-04-12T00:34:46.768Z,1014.04
2017-04-12T00:34:56.768Z,1014.11
2017-04-12T00:35:06.762Z,1014.02
2017-04-12T00:35:16.756Z,1014.03
2017-04-12T00:35:27.105Z,1014.02
2017-04-12T00:35:36.744Z,1014.03
2017-04-12T00:35:46.742Z,1014.02
2017-04-12T00:35:56.396Z,1014.02
2017-04-12T00:36:06.726Z,1013.98
2017-04-12T00:36:16.721Z,1013.99
2017-04-12T00:36:26.715Z,1014.04
2017-04-12T00:36:36.709Z,1013.97
2017-04-12T00:36:46.704Z,1013.96
2017-04-12T00:36:56.698Z,1013.96
2017-04-12T00:37:06.694Z,1013.94
2017-04-12T00:37:16.688Z,1013.97
2017-04-12T00:37:26.679Z,1013.97
2017-04-12T00:37:36.678Z,1014.01
2017-04-12T00:37:46.668Z,1013.95
2017-04-12T00:37:56.665Z,1013.97
2017-04-12T00:38:06.660Z,1013.93
2017-04-12T00:38:17.021Z,1013.98
2017-04-12T00:38:26.649Z,1013.97
2017-04-12T00:38:36.304Z,1013.97
2017-04-12T00:38:46.297Z,1013.95
2017-04-12T00:38:56.298Z,1013.91
2017-04-12T00:39:06.637Z,1013.96
2017-04-12T00:39:16.916Z,1013.95
2017-04-12T00:39:26.618Z,1013.96
2017-04-12T00:39:36.605Z,1013.99
2017-04-12T00:39:46.265Z,1013.99
2017-04-12T00:39:56.593Z,1013.97
2017-04-12T00:40:06.255Z,1013.97
2017-04-12T00:40:16.584Z,1013.98
2017-04-12T00:40:26.936Z,1013.97
2017-04-12T00:40:36.569Z,1013.94
2017-04-12T00:40:45.894Z,1013.95
2017-04-12T00:40:56.561Z,1013.95
2017-04-12T00:41:06.570Z,1013.97
2017-04-12T00:41:16.548Z,1013.95
2017-04-12T00:41:26.898Z,1013.95
2017-04-12T00:41:36.538Z,1013.97
2017-04-12T00:41:46.533Z,1013.96
2017-04-12T00:41:56.527Z,1013.96
2017-04-12T00:42:06.521Z,1013.95
2017-04-12T00:42:16.868Z,1013.94
2017-04-12T00:42:26.510Z,1013.9
2017-04-12T00:42:36.503Z,1013.95
2017-04-12T00:42:46.498Z,1013.96
2017-04-12T00:42:56.489Z,1013.93
2017-04-12T00:43:06.150Z,1013.92
2017-04-12T00:43:16.481Z,1013.92
2017-04-12T00:43:26.476Z,1013.94
2017-04-12T00:43:36.825Z,1013.94
2017-04-12T00:43:46.489Z,1013.96
2017-04-12T00:43:56.460Z,1013.87
2017-04-12T00:44:06.453Z,1013.9
2017-04-12T00:44:16.694Z,1013.94
2017-04-12T00:44:26.443Z,1013.86
2017-04-12T00:44:36.434Z,1013.87
2017-04-12T00:44:46.428Z,1013.85
2017-04-12T00:44:56.424Z,1013.83
2017-04-12T00:45:05.744Z,1013.82
2017-04-12T00:45:16.450Z,1013.85
2017-04-12T00:45:26.407Z,1013.85
2017-04-12T00:45:36.401Z,1013.81
2017-04-12T00:45:46.398Z,1013.81
2017-04-12T00:45:56.056Z,1013.79
2017-04-12T00:46:06.383Z,1013.81
2017-04-12T00:46:16.378Z,1013.82
2017-04-12T00:46:26.371Z,1013.77
2017-04-12T00:46:36.370Z,1013.78
2017-04-12T00:46:46.359Z,1013.78
2017-04-12T00:46:56.354Z,1013.73
2017-04-12T00:47:06.352Z,1013.74
2017-04-12T00:47:16.347Z,1013.71
2017-04-12T00:47:26.341Z,1013.7
2017-04-12T00:47:36.332Z,1013.72
2017-04-12T00:47:46.334Z,1013.69
2017-04-12T00:47:56.319Z,1013.67
2017-04-12T00:48:06.036Z,1013.68
2017-04-12T00:48:16.311Z,1013.7
2017-04-12T00:48:26.305Z,1013.7
2017-04-12T00:48:35.970Z,1013.73
2017-04-12T00:48:46.292Z,1013.68
2017-04-12T00:48:56.286Z,1013.73
2017-04-12T00:49:06.280Z,1013.74
2017-04-12T00:49:16.565Z,1013.71
2017-04-12T00:49:26.272Z,1013.64
2017-04-12T00:49:36.261Z,1013.71
2017-04-12T00:49:46.255Z,1013.65
2017-04-12T00:49:56.251Z,1013.64
2017-04-12T00:50:06.295Z,1013.63
2017-04-12T00:50:16.243Z,1013.67
2017-04-12T00:50:26.238Z,1013.68
2017-04-12T00:50:36.233Z,1013.69
2017-04-12T00:50:46.223Z,1013.71
2017-04-12T00:50:56.220Z,1013.63
2017-04-12T00:51:06.219Z,1013.71
2017-04-12T00:51:16.210Z,1013.64
2017-04-12T00:51:26.203Z,1013.65
2017-04-12T00:51:36.564Z,1013.66
2017-04-12T00:51:46.186Z,1013.64
2017-04-12T00:51:56.182Z,1013.61
2017-04-12T00:52:06.546Z,1013.57
2017-04-12T00:52:16.170Z,1013.6
2017-04-12T00:52:26.167Z,1013.6
2017-04-12T00:52:36.162Z,1013.67
2017-04-12T00:52:46.157Z,1013.66
2017-04-12T00:52:56.149Z,1013.64
2017-04-12T00:53:06.147Z,1013.62
2017-04-12T00:53:16.139Z,1013.59
2017-04-12T00:53:26.132Z,1013.62
2017-04-12T00:53:36.138Z,1013.64
2017-04-12T00:53:46.120Z,1013.61
2017-04-12T00:53:56.113Z,1013.57
2017-04-12T00:54:06.116Z,1013.56
2017-04-12T00:54:16.103Z,1013.58
2017-04-12T00:54:26.099Z,1013.59
2017-04-12T00:54:36.091Z,1013.61
2017-04-12T00:54:46.088Z,1013.61
2017-04-12T00:54:56.077Z,1013.54
2017-04-12T00:55:05.738Z,1013.56
2017-04-12T00:55:15.734Z,1013.6
2017-04-12T00:55:26.061Z,1013.54
2017-04-12T00:55:36.053Z,1013.59
2017-04-12T00:55:46.051Z,1013.61
2017-04-12T00:55:56.402Z,1013.59
2017-04-12T00:56:06.046Z,1013.56
2017-04-12T00:56:16.036Z,1013.58
2017-04-12T00:56:26.029Z,1013.58
2017-04-12T00:56:36.025Z,1013.57
2017-04-12T00:56:46.012Z,1013.57
2017-04-12T00:56:56.051Z,1013.54
2017-04-12T00:57:06.006Z,1013.58
2017-04-12T00:57:15.999Z,1013.63
2017-04-12T00:57:25.996Z,1013.61
2017-04-12T00:57:35.991Z,1013.61
2017-04-12T00:57:45.652Z,1013.51
2017-04-12T00:57:55.980Z,1013.56
2017-04-12T00:58:05.632Z,1013.57
2017-04-12T00:58:15.961Z,1013.59
2017-04-12T00:58:25.960Z,1013.6
2017-04-12T00:58:35.956Z,1013.51
2017-04-12T00:58:45.951Z,1013.59
2017-04-12T00:58:55.943Z,1013.57
2017-04-12T00:59:05.945Z,1013.55
2017-04-12T00:59:15.930Z,1013.58
2017-04-12T00:59:25.927Z,1013.56
2017-04-12T00:59:35.916Z,1013.56
2017-04-12T00:59:45.916Z,1013.53
2017-04-12T00:59:55.576Z,1013.58
2017-04-12T01:00:05.909Z,1013.56
2017-04-12T01:00:15.895Z,1013.53
2017-04-12T01:00:25.893Z,1013.55
2017-04-12T01:00:35.552Z,1013.52
2017-04-12T01:00:45.879Z,1013.54
2017-04-12T01:00:56.223Z,1013.56
2017-04-12T01:01:05.873Z,1013.56
2017-04-12T01:01:15.862Z,1013.5
2017-04-12T01:01:25.521Z,1013.49
2017-04-12T01:01:35.849Z,1013.53
2017-04-12T01:01:45.509Z,1013.51
2017-04-12T01:01:55.836Z,1013.53
2017-04-12T01:02:05.502Z,1013.55
2017-04-12T01:02:15.829Z,1013.58
2017-04-12T01:02:26.173Z,1013.54
2017-04-12T01:02:35.819Z,1013.47
2017-04-12T01:02:45.817Z,1013.51
2017-04-12T01:02:55.803Z,1013.53
2017-04-12T01:03:05.801Z,1013.55
2017-04-12T01:03:15.796Z,1013.55
2017-04-12T01:03:25.791Z,1013.56
2017-04-12T01:03:35.782Z,1013.5
2017-04-12T01:03:45.777Z,1013.54
2017-04-12T01:03:55.769Z,1013.54
2017-04-12T01:04:05.432Z,1013.52
2017-04-12T01:04:15.760Z,1013.48
2017-04-12T01:04:25.752Z,1013.5
2017-04-12T01:04:35.746Z,1013.51
2017-04-12T01:04:45.743Z,1013.51
2017-04-12T01:04:55.737Z,1013.54
2017-04-12T01:05:05.733Z,1013.49
2017-04-12T01:05:15.726Z,1013.46
2017-04-12T01:05:25.718Z,1013.49
2017-04-12T01:05:35.715Z,1013.46
2017-04-12T01:05:45.374Z,1013.53
2017-04-12T01:05:55.699Z,1013.47
2017-04-12T01:06:05.357Z,1013.43
2017-04-12T01:06:15.688Z,1013.46
2017-04-12T01:06:25.683Z,1013.47
2017-04-12T01:06:35.682Z,1013.48
2017-04-12T01:06:45.336Z,1013.47
2017-04-12T01:06:55.665Z,1013.47
2017-04-12T01:07:05.661Z,1013.44
2017-04-12T01:07:15.654Z,1013.47
2017-04-12T01:07:25.649Z,1013.46
2017-04-12T01:07:35.639Z,1013.47
2017-04-12T01:07:45.677Z,1013.47
2017-04-12T01:07:55.633Z,1013.54
2017-04-12T01:08:05.627Z,1013.41
2017-04-12T01:08:15.621Z,1013.45
2017-04-12T01:08:25.618Z,1013.47
2017-04-12T01:08:35.610Z,1013.46
2017-04-12T01:08:45.601Z,1013.43
2017-04-12T01:08:55.598Z,1013.47
2017-04-12T01:09:05.594Z,1013.45
2017-04-12T01:09:15.835Z,1013.46
2017-04-12T01:09:25.582Z,1013.48
2017-04-12T01:09:35.598Z,1013.42
2017-04-12T01:09:45.571Z,1013.4
2017-04-12T01:09:55.563Z,1013.39
2017-04-12T01:10:05.559Z,1013.43
2017-04-12T01:10:15.553Z,1013.39
2017-04-12T01:10:25.547Z,1013.4
2017-04-12T01:10:35.538Z,1013.39
2017-04-12T01:10:45.534Z,1013.41
2017-04-12T01:10:55.528Z,1013.43
2017-04-12T01:11:05.524Z,1013.39
2017-04-12T01:11:15.867Z,1013.37
2017-04-12T01:11:25.510Z,1013.33
2017-04-12T01:11:35.505Z,1013.34
2017-04-12T01:11:45.504Z,1013.37
2017-04-12T01:11:55.494Z,1013.34
2017-04-12T01:12:05.488Z,1013.36
2017-04-12T01:12:15.480Z,1013.39
2017-04-12T01:12:25.830Z,1013.39
2017-04-12T01:12:35.472Z,1013.36
2017-04-12T01:12:45.131Z,1013.36
2017-04-12T01:12:55.461Z,1013.34
2017-04-12T01:13:05.457Z,1013.31
2017-04-12T01:13:15.449Z,1013.28
2017-04-12T01:13:25.441Z,1013.26
2017-04-12T01:13:35.445Z,1013.31
2017-04-12T01:13:45.093Z,1013.29
2017-04-12T01:13:55.089Z,1013.29
2017-04-12T01:14:05.420Z,1013.32
2017-04-12T01:14:16.022Z,1013.32
2017-04-12T01:14:25.410Z,1013.31
2017-04-12T01:14:35.760Z,1013.3
2017-04-12T01:14:45.066Z,1013.34
2017-04-12T01:14:55.391Z,1013.31
2017-04-12T01:15:05.743Z,1013.28
2017-04-12T01:15:15.382Z,1013.29
2017-04-12T01:15:24.706Z,1013.32
2017-04-12T01:15:35.370Z,1013.27
2017-04-12T01:15:45.362Z,1013.33
2017-04-12T01:15:55.354Z,1013.31
2017-04-12T01:16:05.347Z,1013.32
2017-04-12T01:16:15.348Z,1013.3
2017-04-12T01:16:25.339Z,1013.3
2017-04-12T01:16:35.334Z,1013.29
2017-04-12T01:16:45.327Z,1013.34
2017-04-12T01:16:55.323Z,1013.3
2017-04-12T01:17:05.317Z,1013.32
2017-04-12T01:17:15.309Z,1013.33
2017-04-12T01:17:24.967Z,1013.33
2017-04-12T01:17:35.300Z,1013.33
2017-04-12T01:17:45.300Z,1013.35
2017-04-12T01:17:55.292Z,1013.37
2017-04-12T01:18:05.309Z,1013.32
2017-04-12T01:18:15.277Z,1013.33
2017-04-12T01:18:24.936Z,1013.34
2017-04-12T01:18:35.267Z,1013.37
2017-04-12T01:18:45.257Z,1013.33
2017-04-12T01:18:55.606Z,1013.3
2017-04-12T01:19:05.247Z,1013.29
2017-04-12T01:19:15.495Z,1013.37
2017-04-12T01:19:24.902Z,1013.31
2017-04-12T01:19:35.230Z,1013.31
2017-04-12T01:19:45.225Z,1013.33
2017-04-12T01:19:55.219Z,1013.31
2017-04-12T01:20:04.876Z,1013.27
2017-04-12T01:20:14.874Z,1013.32
2017-04-12T01:20:25.200Z,1013.37
2017-04-12T01:20:35.198Z,1013.31
2017-04-12T01:20:45.189Z,1013.29
2017-04-12T01:20:55.181Z,1013.33
2017-04-12T01:21:05.178Z,1013.31
2017-04-12T01:21:15.173Z,1013.3
2017-04-12T01:21:25.168Z,1013.27
2017-04-12T01:21:35.161Z,1013.25
2017-04-12T01:21:45.155Z,1013.26
2017-04-12T01:21:55.151Z,1013.23
2017-04-12T01:22:05.148Z,1013.3
2017-04-12T01:22:15.173Z,1013.27
2017-04-12T01:22:25.135Z,1013.26
2017-04-12T01:22:35.127Z,1013.28
2017-04-12T01:22:45.122Z,1013.27
2017-04-12T01:22:55.154Z,1013.3
2017-04-12T01:23:05.112Z,1013.34
2017-04-12T01:23:15.106Z,1013.26
2017-04-12T01:23:25.102Z,1013.31
2017-04-12T01:23:35.093Z,1013.34
2017-04-12T01:23:45.094Z,1013.22
2017-04-12T01:23:55.445Z,1013.32
2017-04-12T01:24:05.079Z,1013.27
2017-04-12T01:24:15.427Z,1013.34
2017-04-12T01:24:24.730Z,1013.3
2017-04-12T01:24:35.059Z,1013.28
2017-04-12T01:24:45.054Z,1013.22
2017-04-12T01:24:54.720Z,1013.24
2017-04-12T01:25:05.042Z,1013.3
2017-04-12T01:25:15.036Z,1013.3
2017-04-12T01:25:24.695Z,1013.27
2017-04-12T01:25:34.690Z,1013.3
2017-04-12T01:25:45.018Z,1013.29
2017-04-12T01:25:55.011Z,1013.23
2017-04-12T01:26:05.005Z,1013.25
2017-04-12T01:26:15.003Z,1013.26
2017-04-12T01:26:24.992Z,1013.29
2017-04-12T01:26:35.021Z,1013.25
2017-04-12T01:26:44.981Z,1013.24
2017-04-12T01:26:54.980Z,1013.26
2017-04-12T01:27:05.333Z,1013.31
2017-04-12T01:27:14.630Z,1013.27
2017-04-12T01:27:24.962Z,1013.26
2017-04-12T01:27:34.953Z,1013.22
2017-04-12T01:27:45.304Z,1013.26
2017-04-12T01:27:54.941Z,1013.24
2017-04-12T01:28:04.938Z,1013.26
2017-04-12T01:28:14.934Z,1013.25
2017-04-12T01:28:24.926Z,1013.25
2017-04-12T01:28:35.275Z,1013.23
2017-04-12T01:28:44.915Z,1013.25
2017-04-12T01:28:54.908Z,1013.26
2017-04-12T01:29:04.901Z,1013.24
2017-04-12T01:29:14.899Z,1013.28
2017-04-12T01:29:24.892Z,1013.19
2017-04-12T01:29:34.885Z,1013.22
2017-04-12T01:29:44.880Z,1013.27
2017-04-12T01:29:54.874Z,1013.25
2017-04-12T01:30:04.864Z,1013.22
2017-04-12T01:30:14.527Z,1013.24
2017-04-12T01:30:24.855Z,1013.26
2017-04-12T01:30:34.871Z,1013.21
2017-04-12T01:30:44.843Z,1013.25
2017-04-12T01:30:54.839Z,1013.25
2017-04-12T01:31:04.834Z,1013.21
2017-04-12T01:31:14.826Z,1013.3
2017-04-12T01:31:24.821Z,1013.3
2017-04-12T01:31:34.814Z,1013.2
2017-04-12T01:31:44.811Z,1013.27
2017-04-12T01:31:54.808Z,1013.22
2017-04-12T01:32:04.800Z,1013.28
2017-04-12T01:32:14.791Z,1013.22
2017-04-12T01:32:24.791Z,1013.26
2017-04-12T01:32:34.780Z,1013.26
2017-04-12T01:32:44.775Z,1013.25
2017-04-12T01:32:54.445Z,1013.23
2017-04-12T01:33:04.766Z,1013.26
2017-04-12T01:33:14.760Z,1013.25
2017-04-12T01:33:24.424Z,1013.24
2017-04-12T01:33:34.748Z,1013.25
2017-04-12T01:33:44.410Z,1013.2
2017-04-12T01:33:54.740Z,1013.29
2017-04-12T01:34:04.729Z,1013.24
2017-04-12T01:34:14.973Z,1013.2
2017-04-12T01:34:24.385Z,1013.24
2017-04-12T01:34:34.714Z,1013.2
2017-04-12T01:34:44.705Z,1013.18
2017-04-12T01:34:54.703Z,1013.26
2017-04-12T01:35:04.358Z,1013.25
2017-04-12T01:35:14.691Z,1013.2
2017-04-12T01:35:24.686Z,1013.18
2017-04-12T01:35:34.678Z,1013.17
2017-04-12T01:35:44.670Z,1013.23
2017-04-12T01:35:54.663Z,1013.18
2017-04-12T01:36:04.664Z,1013.2
2017-04-12T01:36:14.655Z,1013.16
2017-04-12T01:36:25.003Z,1013.21
2017-04-12T01:36:34.646Z,1013.18
2017-04-12T01:36:44.636Z,1013.14
2017-04-12T01:36:54.990Z,1013.13
2017-04-12T01:37:04.627Z,1013.11
2017-04-12T01:37:14.624Z,1013.08
2017-04-12T01:37:24.614Z,1013.07
2017-04-12T01:37:34.280Z,1013.17
2017-04-12T01:37:44.606Z,1013.14
2017-04-12T01:37:54.599Z,1013.14
2017-04-12T01:38:04.593Z,1013.12
2017-04-12T01:38:14.955Z,1013.07
2017-04-12T01:38:24.582Z,1013.11
2017-04-12T01:38:34.572Z,1013.11
2017-04-12T01:38:44.571Z,1013.07
2017-04-12T01:38:54.568Z,1013.04
2017-04-12T01:39:04.559Z,1013.11
2017-04-12T01:39:14.802Z,1013.09
2017-04-12T01:39:24.545Z,1013.08
2017-04-12T01:39:34.540Z,1013.07
2017-04-12T01:39:44.537Z,1013.04
2017-04-12T01:39:54.880Z,1013.05
2017-04-12T01:40:04.185Z,1013.03
2017-04-12T01:40:14.185Z,1013.08
2017-04-12T01:40:24.509Z,1013.07
2017-04-12T01:40:34.503Z,1013.07
2017-04-12T01:40:44.499Z,1013.05
2017-04-12T01:40:54.156Z,1013.07
2017-04-12T01:41:04.487Z,1013.03
2017-04-12T01:41:14.483Z,1013.03
2017-04-12T01:41:24.140Z,1013.01
2017-04-12T01:41:34.137Z,1013
2017-04-12T01:41:44.466Z,1013.01
2017-04-12T01:41:54.458Z,1013.03
2017-04-12T01:42:03.782Z,1013.02
2017-04-12T01:42:14.448Z,1013
2017-04-12T01:42:24.441Z,1012.97
2017-04-12T01:42:34.434Z,1012.99
2017-04-12T01:42:44.426Z,1012.96
2017-04-12T01:42:54.423Z,1013.01
2017-04-12T01:43:04.080Z,1013.04
2017-04-12T01:43:14.415Z,1013.01
2017-04-12T01:43:24.072Z,1013.05
2017-04-12T01:43:34.398Z,1013.01
2017-04-12T01:43:44.395Z,1013.01
2017-04-12T01:43:54.388Z,1013.05
2017-04-12T01:44:04.383Z,1013.05
2017-04-12T01:44:14.678Z,1013.03
2017-04-12T01:44:24.375Z,1012.99
2017-04-12T01:44:34.727Z,1013.08
2017-04-12T01:44:44.362Z,1013.06
2017-04-12T01:44:54.356Z,1013.1
2017-04-12T01:45:04.016Z,1013.05
2017-04-12T01:45:14.344Z,1013.05
2017-04-12T01:45:24.337Z,1013.09
2017-04-12T01:45:34.331Z,1013.06
2017-04-12T01:45:44.527Z,1013.07
2017-04-12T01:45:54.324Z,1013.09
2017-04-12T01:46:04.314Z,1013.01
2017-04-12T01:46:14.308Z,1013.04
2017-04-12T01:46:24.304Z,1013.02
2017-04-12T01:46:34.301Z,1013.05
2017-04-12T01:46:44.293Z,1013.04
2017-04-12T01:46:53.946Z,1013.04
2017-04-12T01:47:04.278Z,1013.03
2017-04-12T01:47:14.274Z,1013.01
2017-04-12T01:47:24.268Z,1013
2017-04-12T01:47:34.260Z,1013.03
2017-04-12T01:47:44.259Z,1012.96
2017-04-12T01:47:54.253Z,1012.99
2017-04-12T01:48:04.242Z,1013
2017-04-12T01:48:14.240Z,1012.95
2017-04-12T01:48:24.603Z,1012.9
2017-04-12T01:48:33.894Z,1012.9
2017-04-12T01:48:44.221Z,1012.91
2017-04-12T01:48:53.882Z,1012.93
2017-04-12T01:49:04.211Z,1012.96
2017-04-12T01:49:14.457Z,1012.9
2017-04-12T01:49:24.200Z,1012.84
2017-04-12T01:49:34.197Z,1012.89
2017-04-12T01:49:44.188Z,1012.83
2017-04-12T01:49:54.184Z,1012.94
2017-04-12T01:50:04.179Z,1012.89
2017-04-12T01:50:13.838Z,1012.86
2017-04-12T01:50:24.164Z,1012.81
2017-04-12T01:50:34.160Z,1012.88
2017-04-12T01:50:43.819Z,1012.83
2017-04-12T01:50:54.150Z,1012.76
2017-04-12T01:51:03.807Z,1012.87
2017-04-12T01:51:14.138Z,1012.87
2017-04-12T01:51:24.132Z,1012.8
2017-04-12T01:51:33.795Z,1012.81
2017-04-12T01:51:44.118Z,1012.8
2017-04-12T01:51:54.479Z,1012.8
2017-04-12T01:52:03.773Z,1012.78
2017-04-12T01:52:14.451Z,1012.78
2017-04-12T01:52:24.098Z,1012.83
2017-04-12T01:52:34.092Z,1012.87
2017-04-12T01:52:44.085Z,1012.81
2017-04-12T01:52:54.078Z,1012.8
2017-04-12T01:53:04.073Z,1012.76
2017-04-12T01:53:13.735Z,1012.85
2017-04-12T01:53:24.064Z,1012.78
2017-04-12T01:53:33.718Z,1012.83
2017-04-12T01:53:44.049Z,1012.88
2017-04-12T01:53:54.043Z,1012.85
2017-04-12T01:54:04.040Z,1012.83
2017-04-12T01:54:14.387Z,1012.79
2017-04-12T01:54:24.026Z,1012.84
2017-04-12T01:54:34.024Z,1012.8
2017-04-12T01:54:44.015Z,1012.81
2017-04-12T01:54:53.672Z,1012.87
2017-04-12T01:55:03.333Z,1012.77
2017-04-12T01:55:14.000Z,1012.78
2017-04-12T01:55:23.994Z,1012.85
2017-04-12T01:55:33.984Z,1012.78
2017-04-12T01:55:43.982Z,1012.8
2017-04-12T01:55:53.976Z,1012.81
2017-04-12T01:56:03.972Z,1012.84
2017-04-12T01:56:13.962Z,1012.84
2017-04-12T01:56:23.958Z,1012.83
2017-04-12T01:56:34.307Z,1012.81
2017-04-12T01:56:43.612Z,1012.79
2017-04-12T01:56:53.937Z,1012.8
2017-04-12T01:57:03.264Z,1012.82
2017-04-12T01:57:13.594Z,1012.8
2017-04-12T01:57:23.923Z,1012.79
2017-04-12T01:57:33.918Z,1012.79
2017-04-12T01:57:43.913Z,1012.77
2017-04-12T01:57:53.905Z,1012.79
2017-04-12T01:58:03.899Z,1012.82
2017-04-12T01:58:13.892Z,1012.75
2017-04-12T01:58:23.886Z,1012.74
2017-04-12T01:58:33.880Z,1012.73
2017-04-12T01:58:43.876Z,1012.75
2017-04-12T01:58:53.538Z,1012.73
2017-04-12T01:59:03.528Z,1012.74
2017-04-12T01:59:13.800Z,1012.73
2017-04-12T01:59:23.853Z,1012.72
2017-04-12T01:59:33.511Z,1012.73
2017-04-12T01:59:43.843Z,1012.74
2017-04-12T01:59:53.839Z,1012.7
2017-04-12T02:00:03.497Z,1012.69
2017-04-12T02:00:13.821Z,1012.72
2017-04-12T02:00:23.820Z,1012.69
2017-04-12T02:00:33.815Z,1012.72
2017-04-12T02:00:43.810Z,1012.67
2017-04-12T02:00:54.163Z,1012.68
2017-04-12T02:01:03.795Z,1012.66
2017-04-12T02:01:13.808Z,1012.67
2017-04-12T02:01:23.787Z,1012.63